Time;durP1;ratioP1;P1;durP2;ratioP2;P2;SDS_P1;SDS_P2;PMS_P1;PMS_P2;Temp;Humidity;BMP_temperature;BMP_pressure;BME280_temperature;BME280_humidity;BME280_pressure;Samples;Min_cycle;Max_cycle;Signal;HPM_P1;HPM_P2
2022/03/20 00:00:26;;;;;;;;;2.00;2.00;;;;;9.50;38.74;102508.09;5042475;28;45291;-72
2022/03/20 00:02:53;;;;;;;;;6.00;6.00;;;;;9.45;39.07;102496.78;5038380;28;45421;-72
2022/03/20 00:05:18;;;;;;;;;3.00;2.50;;;;;9.44;39.18;102500.25;5039907;28;45495;-72
2022/03/20 00:07:44;;;;;;;;;4.00;4.00;;;;;9.41;39.04;102493.31;5052910;28;46279;-72
2022/03/20 00:10:10;;;;;;;;;7.75;3.00;;;;;9.38;39.02;102502.94;5048781;28;45815;-72
2022/03/20 00:12:36;;;;;;;;;6.25;3.00;;;;;9.34;39.50;102495.97;5042184;28;45433;-72
2022/03/20 00:15:02;;;;;;;;;4.00;3.00;;;;;9.30;39.29;102494.31;5053931;28;45503;-72
2022/03/20 00:17:27;;;;;;;;;3.25;3.00;;;;;9.27;39.37;102499.56;5054490;28;46061;-72
2022/03/20 00:19:53;;;;;;;;;3.25;2.25;;;;;9.24;39.29;102486.47;5054965;28;45292;-72
2022/03/20 00:22:18;;;;;;;;;6.00;4.50;;;;;9.23;39.51;102489.97;5054070;28;45470;-72
2022/03/20 00:24:44;;;;;;;;;8.00;6.00;;;;;9.19;39.46;102494.41;5053945;28;45348;-72
2022/03/20 00:27:12;;;;;;;;;6.00;6.00;;;;;9.16;39.78;102483.94;5054295;28;46833;-72
2022/03/20 00:29:38;;;;;;;;;2.25;2.25;;;;;9.13;39.80;102500.56;5053602;28;45467;-72
2022/03/20 00:32:05;;;;;;;;;3.00;3.00;;;;;9.10;39.45;102495.34;5054563;28;46920;-72
2022/03/20 00:34:30;;;;;;;;;4.50;2.50;;;;;9.06;39.65;102491.00;5054056;28;45434;-72
2022/03/20 00:36:56;;;;;;;;;2.00;2.00;;;;;9.02;39.82;102486.66;5053696;28;45373;-72
2022/03/20 00:39:21;;;;;;;;;2.75;2.75;;;;;8.98;39.62;102486.69;5053342;28;45454;-72
2022/03/20 00:41:46;;;;;;;;;1.25;1.25;;;;;8.94;40.08;102487.63;5053940;28;45349;-72
2022/03/20 00:44:12;;;;;;;;;5.00;1.00;;;;;8.90;40.14;102484.16;5054223;28;45294;-72
2022/03/20 00:46:37;;;;;;;;;4.00;3.75;;;;;8.88;40.25;102485.94;5044232;28;48646;-72
2022/03/20 00:49:02;;;;;;;;;2.00;2.00;;;;;8.84;39.96;102478.97;5043034;28;45454;-71
2022/03/20 00:51:28;;;;;;;;;9.00;7.00;;;;;8.82;40.00;102472.84;5042606;28;45506;-72
2022/03/20 00:53:53;;;;;;;;;7.00;3.50;;;;;8.76;39.88;102475.50;5037682;28;45450;-72
2022/03/20 00:56:18;;;;;;;;;4.25;4.00;;;;;8.71;40.15;102466.81;5039516;28;46276;-72
2022/03/20 00:58:46;;;;;;;;;3.00;3.00;;;;;8.69;40.02;102471.22;5041931;28;45357;-72
2022/03/20 01:01:13;;;;;;;;;8.25;6.50;;;;;8.67;40.62;102466.00;5044850;28;45388;-72
2022/03/20 01:03:38;;;;;;;;;4.25;2.50;;;;;8.67;40.37;102465.13;5046014;28;45383;-72
2022/03/20 01:06:05;;;;;;;;;11.50;8.75;;;;;8.65;40.29;102459.00;5042120;28;46291;-72
2022/03/20 01:08:30;;;;;;;;;14.75;9.00;;;;;8.61;40.43;102456.41;5057026;28;45230;-72
2022/03/20 01:10:56;;;;;;;;;2.75;2.75;;;;;8.58;40.42;102452.94;5058234;28;45237;-72
2022/03/20 01:13:23;;;;;;;;;6.00;4.25;;;;;8.55;40.94;102453.81;5056522;28;45241;-72
2022/03/20 01:15:49;;;;;;;;;7.25;4.75;;;;;8.52;40.57;102453.00;5056820;28;46305;-72
2022/03/20 01:18:14;;;;;;;;;5.75;3.25;;;;;8.50;41.00;102467.84;5056854;28;45523;-72
2022/03/20 01:20:40;;;;;;;;;2.00;2.00;;;;;8.44;40.98;102457.41;5057223;28;45242;-72
2022/03/20 01:23:05;;;;;;;;;4.25;4.25;;;;;8.43;40.90;102453.03;5044410;28;45534;-72
2022/03/20 01:25:30;;;;;;;;;2.00;2.00;;;;;8.40;40.96;102450.44;5045183;28;54238;-72
2022/03/20 01:27:56;;;;;;;;;5.00;5.00;;;;;8.38;41.44;102444.34;5045225;28;45368;-72
2022/03/20 01:30:22;;;;;;;;;7.00;7.00;;;;;8.34;41.69;102446.94;5044482;28;46545;-72
2022/03/20 01:32:47;;;;;;;;;5.50;4.25;;;;;8.29;41.15;102443.47;5040954;28;45427;-72
2022/03/20 01:35:12;;;;;;;;;5.25;3.00;;;;;8.26;41.51;102440.03;5042985;28;46215;-72
2022/03/20 01:37:40;;;;;;;;;3.00;3.00;;;;;8.21;41.58;102440.06;5054611;28;45387;-72
2022/03/20 01:40:07;;;;;;;;;9.00;7.00;;;;;8.16;41.74;102438.34;5051506;28;45572;-72
2022/03/20 01:42:33;;;;;;;;;8.50;7.50;;;;;8.14;42.30;102438.31;5042270;28;47605;-72
2022/03/20 01:44:58;;;;;;;;;3.50;2.75;;;;;8.10;42.36;102440.13;5056561;28;45970;-72
2022/03/20 01:47:23;;;;;;;;;3.00;3.00;;;;;8.06;42.09;102443.63;5057286;28;45311;-72
2022/03/20 01:49:49;;;;;;;;;2.00;2.00;;;;;8.03;42.34;102434.91;5056458;28;45454;-72
2022/03/20 01:52:22;;;;;;;;;6.00;5.75;;;;;7.98;42.29;102424.44;5056358;28;45452;-72
2022/03/20 01:54:48;;;;;;;;;7.25;6.25;;;;;7.96;42.44;102430.59;5056339;28;46121;-72
2022/03/20 01:57:16;;;;;;;;;7.25;5.00;;;;;7.92;42.77;102421.88;5055901;28;45450;-72
2022/03/20 01:59:42;;;;;;;;;7.00;3.00;;;;;7.90;42.71;102421.00;5056593;28;45281;-72
2022/03/20 02:02:08;;;;;;;;;5.75;5.00;;;;;7.86;43.15;102429.75;5043845;28;45483;-72
2022/03/20 02:04:37;;;;;;;;;4.50;3.00;;;;;7.84;43.04;102432.38;5044481;28;46066;-72
2022/03/20 02:07:04;;;;;;;;;3.00;3.00;;;;;7.81;42.97;102418.44;5048926;28;45267;-72
2022/03/20 02:09:30;;;;;;;;;6.00;3.75;;;;;7.77;43.40;102419.31;5056146;28;45261;-72
2022/03/20 02:11:55;;;;;;;;;7.00;5.75;;;;;7.73;43.24;102413.25;5040377;28;45239;-72
2022/03/20 02:14:21;;;;;;;;;5.75;4.75;;;;;7.70;43.77;102407.16;5053472;28;46169;-72
2022/03/20 02:16:47;;;;;;;;;5.75;5.75;;;;;7.68;44.01;102406.28;5055689;28;45430;-72
2022/03/20 02:19:16;;;;;;;;;4.00;4.00;;;;;7.64;43.97;102408.03;5056270;28;45529;-72
2022/03/20 02:21:46;;;;;;;;;3.00;3.00;;;;;7.60;43.89;102403.69;5055912;28;45478;-72
2022/03/20 02:24:32;;;;;;;;;3.00;2.25;;;;;7.56;43.42;102404.56;5055932;28;47839;-72
2022/03/20 02:27:12;;;;;;;;;4.00;3.00;;;;;7.50;43.84;102402.84;5040301;28;45810;-72
2022/03/20 02:29:39;;;;;;;;;6.00;2.25;;;;;7.45;44.06;102388.06;5055884;28;45360;-72
2022/03/20 02:32:06;;;;;;;;;4.00;1.50;;;;;7.41;44.13;102389.81;5056453;28;45544;-72
2022/03/20 02:34:33;;;;;;;;;5.00;3.50;;;;;7.36;44.81;102391.59;5055436;28;46195;-72
2022/03/20 02:37:01;;;;;;;;;10.00;3.00;;;;;7.35;44.27;102384.59;5055199;28;45721;-72
2022/03/20 02:39:27;;;;;;;;;3.00;3.00;;;;;7.31;44.68;102382.88;5055717;28;45456;-72
2022/03/20 02:41:53;;;;;;;;;3.00;2.50;;;;;7.28;45.03;102390.72;5039675;28;45430;-72
2022/03/20 02:44:18;;;;;;;;;2.75;2.75;;;;;7.24;45.21;102382.00;5052934;28;47185;-72
2022/03/20 02:46:43;;;;;;;;;2.75;2.75;;;;;7.21;44.98;102384.66;5055171;28;45352;-72
2022/03/20 02:49:10;;;;;;;;;6.00;3.00;;;;;7.20;44.97;102382.03;5055468;28;45468;-72
2022/03/20 02:51:36;;;;;;;;;4.50;3.75;;;;;7.17;45.12;102379.44;5055931;28;45446;-72
2022/03/20 02:54:05;;;;;;;;;3.00;2.00;;;;;7.12;45.35;102373.34;5054946;28;46183;-72
2022/03/20 02:56:32;;;;;;;;;2.00;2.00;;;;;7.12;45.64;102378.56;5055629;28;45796;-72
2022/03/20 02:58:58;;;;;;;;;5.25;3.50;;;;;7.07;45.58;102383.81;5056146;28;45421;-72
2022/03/20 03:01:24;;;;;;;;;2.00;2.00;;;;;7.03;45.55;102377.72;5055167;28;45595;-72
2022/03/20 03:03:50;;;;;;;;;9.50;2.00;;;;;7.02;46.04;102375.09;5055020;28;46257;-72
2022/03/20 03:06:16;;;;;;;;;2.50;2.50;;;;;6.98;45.96;102374.22;5055059;28;45400;-72
2022/03/20 03:11:25;;;;;;;;;3.00;2.00;;;;;6.91;45.73;102367.28;5052207;28;45378;-72
2022/03/20 03:13:50;;;;;;;;;4.00;3.00;;;;;6.85;46.18;102355.97;5055051;28;48568;-72
2022/03/20 03:16:16;;;;;;;;;2.75;2.00;;;;;6.83;46.44;102366.41;5054988;28;45391;-72
2022/03/20 03:18:46;;;;;;;;;6.00;2.00;;;;;6.77;46.89;102358.59;5053396;28;45393;-72
2022/03/20 03:21:16;;;;;;;;;2.50;1.25;;;;;6.72;47.44;102350.75;5042098;28;45470;-72
2022/03/20 03:23:42;;;;;;;;;2.75;2.75;;;;;6.69;47.36;102355.13;5038118;28;45456;-72
2022/03/20 03:26:08;;;;;;;;;6.25;4.00;;;;;6.63;47.27;102342.94;5041951;28;45461;-72
2022/03/20 03:28:34;;;;;;;;;5.75;4.50;;;;;6.60;48.04;102347.28;5052578;28;45515;-72
2022/03/20 03:31:10;;;;;;;;;5.00;3.00;;;;;6.57;47.29;102342.06;5050710;28;45339;-72
2022/03/20 03:35:41;;;;;;;;;3.00;3.00;;;;;6.52;47.74;102344.66;5043494;28;45467;-72
2022/03/20 03:36:26;;;;;;;;;3.00;3.00;;;;;6.46;48.41;102335.09;5054822;28;45416;-71
2022/03/20 03:38:52;;;;;;;;;5.50;3.00;;;;;6.45;48.29;102335.97;5054495;28;45425;-72
2022/03/20 03:41:17;;;;;;;;;5.25;5.00;;;;;6.42;48.34;102348.16;5055831;28;45868;-71
2022/03/20 03:43:43;;;;;;;;;4.75;3.25;;;;;6.40;48.48;102352.50;5054571;28;46982;-71
2022/03/20 03:46:08;;;;;;;;;2.50;2.50;;;;;6.38;48.46;102349.91;5054395;28;45474;-72
2022/03/20 03:48:33;;;;;;;;;5.67;3.00;;;;;6.38;48.78;102354.25;5054508;28;56275;-71
2022/03/20 03:50:59;;;;;;;;;4.50;2.50;;;;;6.38;48.74;102360.34;5054736;28;45397;-71
2022/03/20 03:53:24;;;;;;;;;5.00;3.00;;;;;6.38;49.05;102349.03;5054957;28;46133;-72
2022/03/20 03:55:49;;;;;;;;;4.50;4.50;;;;;6.35;49.03;102349.03;5054409;28;45569;-71
2022/03/20 03:58:15;;;;;;;;;2.00;1.33;;;;;6.33;48.81;102348.16;5054054;28;47458;-72
2022/03/20 04:00:43;;;;;;;;;5.50;2.75;;;;;6.30;48.94;102348.16;5052979;28;45675;-71
2022/03/20 04:03:08;;;;;;;;;4.00;2.00;;;;;6.27;49.01;102349.03;5040355;28;47079;-71
2022/03/20 04:05:34;;;;;;;;;3.50;3.50;;;;;6.24;49.68;102344.66;5053478;28;46727;-71
2022/03/20 04:08:00;;;;;;;;;5.00;5.00;;;;;6.23;49.37;102342.94;5054737;28;45464;-71
2022/03/20 04:10:25;;;;;;;;;5.75;5.25;;;;;6.21;49.62;102342.06;5054201;28;45441;-72
2022/03/20 04:12:51;;;;;;;;;5.25;4.50;;;;;6.20;49.85;102349.88;5054028;28;46177;-71
2022/03/20 04:15:21;;;;;;;;;5.00;4.50;;;;;6.21;49.99;102347.31;5054473;28;45486;-72
2022/03/20 04:17:47;;;;;;;;;5.50;5.00;;;;;6.20;50.28;102347.28;5054607;28;45553;-72
2022/03/20 04:20:13;;;;;;;;;5.75;3.25;;;;;6.21;50.03;102354.22;5055123;28;45409;-71
2022/03/20 04:23:42;;;;;;;;;5.50;5.50;;;;;6.21;50.35;102359.44;5057214;28;46163;-72
2022/03/20 04:25:28;;;;;;;;;5.50;5.50;;;;;6.19;49.96;102351.63;5057223;28;45856;-72
2022/03/20 04:27:56;;;;;;;;;5.25;5.25;;;;;6.20;50.46;102361.19;5054022;28;45257;-72
2022/03/20 04:30:24;;;;;;;;;7.00;5.00;;;;;6.18;50.54;102349.03;5054422;28;45756;-71
2022/03/20 04:32:50;;;;;;;;;3.25;3.25;;;;;6.16;49.98;102348.13;5053205;28;47094;-72
2022/03/20 04:35:15;;;;;;;;;7.50;4.50;;;;;6.13;50.46;102356.84;5048845;28;45360;-72
2022/03/20 04:37:44;;;;;;;;;5.75;4.75;;;;;6.12;50.64;102355.13;5048152;28;45446;-72
2022/03/20 04:40:10;;;;;;;;;5.50;5.50;;;;;6.11;51.16;102347.25;5052728;28;45475;-72
2022/03/20 04:42:36;;;;;;;;;7.25;5.00;;;;;6.08;51.40;102345.53;5057395;28;47133;-71
2022/03/20 04:45:03;;;;;;;;;8.00;3.25;;;;;6.07;51.36;102348.16;5057561;28;45506;-72
2022/03/20 04:58:29;;;;;;;;;9.25;5.00;;;;;5.93;51.41;102337.69;5046615;28;45577;-71
2022/03/20 05:00:55;;;;;;;;;7.75;6.00;;;;;5.90;51.25;102330.69;5046371;28;45340;-71
2022/03/20 05:03:21;;;;;;;;;6.00;6.00;;;;;5.88;51.52;102332.41;5046165;28;46131;-72
2022/03/20 05:05:47;;;;;;;;;8.25;6.50;;;;;5.87;51.46;102345.47;5046924;28;45462;-72
2022/03/20 05:08:12;;;;;;;;;7.25;5.00;;;;;5.85;51.85;102340.25;5043900;28;45747;-72
2022/03/20 05:13:22;;;;;;;;;7.00;7.00;;;;;5.86;51.92;102341.13;5056773;28;45423;-72
2022/03/20 05:15:47;;;;;;;;;9.75;6.00;;;;;5.84;52.06;102346.31;5054592;28;45402;-71
2022/03/20 05:18:13;;;;;;;;;10.00;8.00;;;;;5.82;51.91;102336.75;5043791;28;45814;-72
2022/03/20 05:20:38;;;;;;;;;9.50;7.00;;;;;5.80;52.27;102341.97;5040712;28;45389;-72
2022/03/20 05:23:04;;;;;;;;;8.00;8.00;;;;;5.75;52.29;102341.97;5044800;28;45435;-72
2022/03/20 05:25:30;;;;;;;;;5.25;5.00;;;;;5.72;52.76;102335.84;5045358;28;49973;-72
2022/03/20 05:27:56;;;;;;;;;5.75;5.50;;;;;5.69;52.80;102344.56;5045685;28;45338;-72
2022/03/20 05:30:22;;;;;;;;;9.00;8.00;;;;;5.66;52.92;102341.06;5044786;28;45455;-72
2022/03/20 05:32:48;;;;;;;;;10.75;5.25;;;;;5.65;52.83;102341.94;5041602;28;46186;-72
2022/03/20 05:35:16;;;;;;;;;8.00;5.00;;;;;5.63;52.92;102343.63;5043318;28;45309;-71
2022/03/20 05:37:42;;;;;;;;;8.25;7.50;;;;;5.61;53.07;102337.56;5045232;28;50124;-71
2022/03/20 05:40:08;;;;;;;;;7.75;5.00;;;;;5.60;52.57;102344.53;5045779;28;45411;-71
2022/03/20 05:42:34;;;;;;;;;5.00;5.00;;;;;5.60;53.08;102346.25;5045296;28;47157;-72
2022/03/20 05:45:02;;;;;;;;;7.00;7.00;;;;;5.57;53.60;102331.44;5041577;28;45423;-71
2022/03/20 05:47:30;;;;;;;;;9.50;4.00;;;;;5.58;53.17;102340.16;5040203;28;45388;-71
2022/03/20 05:49:56;;;;;;;;;8.00;8.00;;;;;5.58;53.42;102335.81;5045042;28;45511;-71
2022/03/20 05:52:21;;;;;;;;;7.00;5.50;;;;;5.57;53.85;102334.06;5045323;28;45378;-72
2022/03/20 05:54:46;;;;;;;;;10.25;5.50;;;;;5.55;53.54;102329.72;5045053;28;45415;-71
2022/03/20 05:59:56;;;;;;;;;5.50;5.00;;;;;5.52;54.07;102327.09;5041178;28;45274;-72
2022/03/20 06:02:21;;;;;;;;;5.25;4.50;;;;;5.51;53.71;102326.22;5043889;28;45891;-72
2022/03/20 06:04:47;;;;;;;;;7.00;5.00;;;;;5.52;54.17;102321.88;5051213;28;45341;-71
2022/03/20 06:07:12;;;;;;;;;11.25;5.75;;;;;5.50;53.79;102325.34;5055930;28;45783;-72
2022/03/20 06:09:38;;;;;;;;;6.25;6.25;;;;;5.50;53.88;102327.09;5055945;28;45420;-72
2022/03/20 06:12:04;;;;;;;;;7.25;7.25;;;;;5.49;54.09;102328.84;5055994;28;46326;-71
2022/03/20 06:14:29;;;;;;;;;6.50;6.50;;;;;5.50;53.43;102334.91;5056831;28;45332;-72
2022/03/20 06:16:56;;;;;;;;;13.00;6.25;;;;;5.50;54.33;102333.19;5044036;28;45411;-71
2022/03/20 06:19:21;;;;;;;;;7.25;5.00;;;;;5.55;53.80;102340.16;5044685;28;45352;-72
2022/03/20 06:21:47;;;;;;;;;6.00;6.00;;;;;5.57;54.49;102341.03;5044811;28;46043;-71
2022/03/20 06:24:12;;;;;;;;;8.25;5.25;;;;;5.61;54.62;102345.38;5042463;28;45565;-71
2022/03/20 06:26:38;;;;;;;;;8.75;8.25;;;;;5.66;54.30;102341.06;5040026;28;45352;-71
2022/03/20 06:29:07;;;;;;;;;13.00;8.50;;;;;5.70;54.77;102343.69;5043882;28;45233;-71
2022/03/20 06:31:33;;;;;;;;;8.50;4.75;;;;;5.75;54.39;102341.97;5044109;28;45636;-71
2022/03/20 06:33:58;;;;;;;;;6.00;6.00;;;;;5.80;54.37;102341.09;5051709;28;45486;-71
2022/03/20 06:36:25;;;;;;;;;7.50;7.50;;;;;5.83;54.54;102349.78;5046498;28;45571;-72
2022/03/20 06:38:50;;;;;;;;;12.75;11.00;;;;;5.85;54.38;102350.69;5055144;28;45447;-71
2022/03/20 06:41:17;;;;;;;;;11.00;8.00;;;;;5.89;54.47;102351.53;5056571;28;46213;-71
2022/03/20 06:43:43;;;;;;;;;8.50;8.50;;;;;5.92;54.54;102352.47;5055569;28;45926;-70
2022/03/20 06:46:08;;;;;;;;;8.25;8.00;;;;;5.99;54.15;102363.78;5048947;28;45476;-72
2022/03/20 06:48:34;;;;;;;;;11.33;9.33;;;;;6.04;54.23;102359.44;5055506;28;48701;-72
2022/03/20 06:51:00;;;;;;;;;8.75;8.75;;;;;6.07;54.28;102359.44;5045641;28;46162;-72
2022/03/20 06:53:26;;;;;;;;;9.50;9.00;;;;;6.15;54.43;102367.28;5040487;28;45408;-72
2022/03/20 06:55:52;;;;;;;;;9.00;9.00;;;;;6.25;54.40;102363.81;5054203;28;45815;-72
2022/03/20 06:58:20;;;;;;;;;10.25;7.25;;;;;6.33;54.48;102369.06;5054319;28;45487;-71
2022/03/20 07:00:46;;;;;;;;;8.00;6.25;;;;;6.41;54.41;102370.78;5055155;28;45303;-72
2022/03/20 07:03:11;;;;;;;;;9.50;8.75;;;;;6.52;54.12;102373.41;5050998;28;45476;-72
2022/03/20 07:05:37;;;;;;;;;14.00;10.00;;;;;6.59;54.03;102369.94;5045230;28;45517;-71
2022/03/20 07:08:04;;;;;;;;;17.50;13.25;;;;;6.67;53.87;102367.31;5048592;28;45491;-71
2022/03/20 07:10:30;;;;;;;;;10.25;10.25;;;;;6.77;53.67;102377.75;5054285;28;46480;-71
2022/03/20 07:13:48;;;;;;;;;14.75;10.00;;;;;6.84;53.65;102386.47;5051326;28;45411;-71
2022/03/20 07:15:44;;;;;;;;;13.50;11.25;;;;;6.96;53.70;102376.00;5043594;28;45314;-71
2022/03/20 07:18:10;;;;;;;;;19.25;13.00;;;;;7.11;53.43;102382.06;5047072;28;45566;-71
2022/03/20 07:20:42;;;;;;;;;16.50;12.25;;;;;7.29;53.36;102384.63;5054890;28;45473;-71
2022/03/20 07:23:09;;;;;;;;;17.00;12.50;;;;;7.57;53.33;102388.91;5040088;28;45403;-72
2022/03/20 07:31:03;;;;;;;;;12.75;9.00;;;;;8.74;52.06;102378.56;5043252;28;45461;-72
2022/03/20 07:33:28;;;;;;;;;13.00;12.25;;;;;9.71;51.71;102377.47;5048728;28;45455;-72
2022/03/20 07:35:54;;;;;;;;;19.25;16.00;;;;;10.57;50.18;102366.59;5052932;28;45297;-72
2022/03/20 07:38:19;;;;;;;;;18.00;13.33;;;;;11.14;48.99;102363.81;5051257;28;45524;-72
2022/03/20 07:40:44;;;;;;;;;18.67;14.33;;;;;12.05;48.95;102370.69;5043250;28;49935;-72
2022/03/20 07:43:10;;;;;;;;;17.00;15.00;;;;;12.66;48.14;102371.84;5043375;28;46116;-72
2022/03/20 07:45:35;;;;;;;;;17.50;16.25;;;;;13.45;47.27;102372.34;5043198;28;45457;-72
2022/03/20 07:48:00;;;;;;;;;20.50;17.00;;;;;13.68;45.40;102373.47;5039551;28;47505;-72
2022/03/20 07:50:26;;;;;;;;;19.25;15.50;;;;;13.56;45.48;102380.81;5037999;28;46115;-72
2022/03/20 07:52:51;;;;;;;;;21.00;18.00;;;;;13.41;45.09;102369.84;5043146;28;45281;-72
2022/03/20 07:55:17;;;;;;;;;29.00;21.25;;;;;13.24;44.95;102380.88;5043373;28;45458;-73
2022/03/20 07:57:42;;;;;;;;;21.00;15.50;;;;;13.18;44.98;102375.75;5043903;28;45415;-71
2022/03/20 08:00:10;;;;;;;;;25.25;18.75;;;;;13.52;44.94;102378.31;5047277;28;46441;-72
2022/03/20 08:02:36;;;;;;;;;27.75;19.25;;;;;13.72;44.80;102373.31;5053958;28;45438;-72
2022/03/20 08:05:01;;;;;;;;;22.00;19.75;;;;;14.89;44.34;102375.75;5042423;28;45353;-70
2022/03/20 08:07:27;;;;;;;;;22.00;19.50;;;;;15.57;42.93;102368.88;5050848;28;45313;-72
2022/03/20 08:09:52;;;;;;;;;29.50;25.75;;;;;16.09;41.66;102367.72;5053736;28;46114;-72
2022/03/20 08:12:17;;;;;;;;;26.00;20.25;;;;;16.66;41.37;102370.69;5053906;28;45394;-72
2022/03/20 08:14:44;;;;;;;;;23.00;22.25;;;;;17.98;40.08;102361.19;5053799;28;54551;-72
2022/03/20 08:17:10;;;;;;;;;31.25;22.50;;;;;18.37;40.22;102361.97;5055021;28;45673;-72
2022/03/20 08:19:36;;;;;;;;;27.50;25.00;;;;;19.28;38.01;102370.56;5053794;28;45490;-72
2022/03/20 08:22:05;;;;;;;;;27.00;22.25;;;;;19.34;36.92;102372.03;5053988;28;45415;-72
2022/03/20 08:24:30;;;;;;;;;34.50;27.25;;;;;19.29;36.30;102372.28;5054368;28;45488;-72
2022/03/20 08:26:55;;;;;;;;;25.75;23.25;;;;;19.60;36.50;102367.13;5053996;28;45515;-72
2022/03/20 08:29:21;;;;;;;;;32.00;22.50;;;;;21.41;35.60;102363.63;5054608;28;46123;-72
2022/03/20 08:31:47;;;;;;;;;31.00;28.00;;;;;23.01;33.93;102367.34;5045625;28;45514;-72
2022/03/20 08:34:14;;;;;;;;;27.25;25.00;;;;;24.35;34.71;102362.09;5053206;28;45309;-72
2022/03/20 08:36:40;;;;;;;;;28.00;25.00;;;;;25.45;32.48;102361.63;5054112;28;45512;-73
2022/03/20 08:39:05;;;;;;;;;29.50;21.50;;;;;27.13;30.77;102362.84;5046907;28;46200;-72
2022/03/20 08:41:32;;;;;;;;;24.00;18.75;;;;;28.46;29.29;102365.19;5037557;28;45348;-72
2022/03/20 08:43:58;;;;;;;;;27.00;24.00;;;;;29.30;29.47;102368.00;5042200;28;45474;-73
2022/03/20 08:46:23;;;;;;;;;21.00;19.50;;;;;29.32;26.24;102363.28;5042939;28;45475;-73
2022/03/20 08:48:49;;;;;;;;;27.75;24.00;;;;;29.53;27.28;102370.31;5042361;28;46218;-73
2022/03/20 08:51:14;;;;;;;;;22.25;18.00;;;;;30.73;26.34;102381.75;5040502;28;45242;-72
2022/03/20 08:53:39;;;;;;;;;26.50;21.00;;;;;32.09;25.38;102375.47;5037853;28;45489;-73
2022/03/20 08:56:06;;;;;;;;;27.25;25.00;;;;;33.23;24.44;102380.84;5053964;28;45288;-72
2022/03/20 08:58:31;;;;;;;;;28.75;23.75;;;;;34.34;24.33;102385.22;5053111;28;46349;-72
2022/03/20 09:00:57;;;;;;;;;25.50;20.75;;;;;35.53;23.17;102387.13;5053773;28;45252;-74
2022/03/20 09:03:23;;;;;;;;;25.50;20.50;;;;;36.55;22.42;102392.47;5053833;28;45555;-74
2022/03/20 09:05:48;;;;;;;;;20.50;18.25;;;;;37.29;21.82;102391.94;5052158;28;45573;-72
2022/03/20 09:08:14;;;;;;;;;23.75;22.25;;;;;38.12;21.93;102392.69;5049600;28;46264;-72
2022/03/20 09:10:39;;;;;;;;;24.00;24.00;;;;;38.93;20.28;102394.41;5046533;28;45552;-72
2022/03/20 09:13:05;;;;;;;;;27.25;23.50;;;;;39.56;20.38;102391.88;5042402;28;47804;-72
2022/03/20 09:15:31;;;;;;;;;29.25;24.00;;;;;40.16;19.74;102392.44;5042443;28;45574;-72
2022/03/20 09:20:42;;;;;;;;;22.00;20.75;;;;;40.31;17.82;102396.78;5035301;28;45928;-73
2022/03/20 09:23:10;;;;;;;;;27.50;20.50;;;;;40.32;17.25;102393.78;5042365;28;45740;-73
2022/03/20 09:25:36;;;;;;;;;23.00;23.00;;;;;40.54;17.73;102396.19;5045362;28;45434;-72
2022/03/20 09:28:04;;;;;;;;;25.00;25.00;;;;;40.84;17.83;102401.84;5049331;28;45849;-73
2022/03/20 09:30:30;;;;;;;;;28.00;24.50;;;;;41.56;17.21;102402.97;5055634;28;45500;-72
2022/03/20 09:32:55;;;;;;;;;24.50;23.00;;;;;41.92;16.86;102399.28;5046719;28;45465;-72
2022/03/20 09:35:21;;;;;;;;;28.00;25.00;;;;;42.43;15.87;102399.75;5057167;28;45358;-72
2022/03/20 09:37:46;;;;;;;;;27.25;22.00;;;;;42.63;16.39;102397.53;5050288;28;48227;-72
2022/03/20 09:40:13;;;;;;;;;25.25;24.75;;;;;42.47;15.73;102388.00;5056229;28;45417;-72
2022/03/20 09:42:39;;;;;;;;;28.25;24.75;;;;;42.70;15.77;102389.94;5056597;28;45447;-72
2022/03/20 09:45:06;;;;;;;;;26.25;21.50;;;;;43.06;15.67;102381.63;5056629;28;45445;-73
2022/03/20 09:47:41;;;;;;;;;26.25;22.75;;;;;43.19;15.95;102387.75;5059050;28;46943;-72
2022/03/20 09:50:08;;;;;;;;;26.50;24.25;;;;;42.85;15.30;102389.44;5056971;28;45658;-73
2022/03/20 09:52:35;;;;;;;;;28.25;25.25;;;;;42.15;15.42;102378.31;5056711;28;45446;-72
2022/03/20 09:55:02;;;;;;;;;28.00;26.00;;;;;41.50;15.10;102383.72;5056056;28;45748;-73
2022/03/20 09:57:29;;;;;;;;;31.75;29.00;;;;;40.63;15.29;102392.06;5056275;28;45451;-72
2022/03/20 09:59:57;;;;;;;;;28.75;24.00;;;;;39.35;15.65;102389.44;5054497;28;45684;-72
2022/03/20 10:02:27;;;;;;;;;28.00;24.25;;;;;38.10;16.19;102385.69;5057217;28;45738;-72
2022/03/20 10:05:00;;;;;;;;;25.50;25.50;;;;;36.78;17.14;102394.09;5045639;28;45616;-72
2022/03/20 10:07:35;;;;;;;;;31.25;28.00;;;;;35.81;17.63;102386.38;5050341;28;46479;-71
2022/03/20 10:10:17;;;;;;;;;25.75;20.75;;;;;35.19;17.60;102386.84;5053985;28;45597;-72
2022/03/20 10:12:49;;;;;;;;;23.25;23.25;;;;;34.81;17.31;102386.03;5055842;28;45520;-73
2022/03/20 10:15:30;;;;;;;;;23.00;21.50;;;;;34.67;17.89;102385.00;5052248;28;45486;-71
2022/03/20 10:18:14;;;;;;;;;28.00;23.25;;;;;34.30;18.22;102388.50;5043013;28;47122;-72
2022/03/20 10:20:50;;;;;;;;;23.50;21.75;;;;;33.90;18.51;102387.75;5053237;28;45367;-72
2022/03/20 10:23:35;;;;;;;;;27.50;23.75;;;;;33.62;18.05;102390.09;5050244;28;45520;-72
2022/03/20 10:26:06;;;;;;;;;28.25;25.75;;;;;33.31;17.97;102384.56;5053172;28;45581;-72
2022/03/20 10:28:52;;;;;;;;;27.25;23.00;;;;;33.32;18.88;102389.03;5052837;28;46115;-72
2022/03/20 10:31:22;;;;;;;;;22.00;20.75;;;;;33.28;17.69;102393.13;5052940;28;45665;-72
2022/03/20 10:34:01;;;;;;;;;23.25;20.50;;;;;32.75;17.67;102389.13;5050916;28;45590;-72
2022/03/20 10:36:27;;;;;;;;;25.00;20.00;;;;;32.51;18.60;102395.41;5052475;28;45957;-72
2022/03/20 10:38:52;;;;;;;;;27.75;20.75;;;;;31.91;18.75;102396.50;5052170;28;46208;-72
2022/03/20 10:41:26;;;;;;;;;38.50;33.50;;;;;31.24;18.57;102388.19;5052512;28;46070;-71
2022/03/20 10:43:56;;;;;;;;;34.75;31.50;;;;;30.25;18.74;102393.03;5053017;28;45558;-72
2022/03/20 10:46:27;;;;;;;;;24.25;22.00;;;;;29.44;19.53;102392.88;5052496;28;45702;-72
2022/03/20 10:48:55;;;;;;;;;16.75;11.75;;;;;28.95;19.75;102381.38;5053154;28;50713;-73
2022/03/20 10:51:37;;;;;;;;;26.00;20.50;;;;;28.55;20.12;102388.66;5052816;28;45589;-72
2022/03/20 10:54:05;;;;;;;;;20.75;19.00;;;;;28.01;20.48;102386.50;5049616;28;45628;-73
2022/03/20 10:56:30;;;;;;;;;21.25;21.25;;;;;27.62;20.54;102380.97;5051542;28;47070;-73
2022/03/20 10:58:56;;;;;;;;;23.00;19.25;;;;;27.10;20.89;102385.59;5061226;28;46097;-74
2022/03/20 11:01:36;;;;;;;;;26.25;20.25;;;;;26.72;21.47;102373.50;5053382;27;45499;-74
2022/03/20 11:04:07;;;;;;;;;24.25;22.25;;;;;26.48;20.73;102373.78;5045816;28;45858;-73
2022/03/20 11:06:33;;;;;;;;;25.00;22.00;;;;;26.13;21.65;102378.53;5049133;28;45554;-72
2022/03/20 11:09:02;;;;;;;;;16.75;16.00;;;;;25.83;21.39;102376.53;5050002;28;46453;-72
2022/03/20 11:11:29;;;;;;;;;14.50;13.75;;;;;25.45;21.26;102377.78;5051279;28;45578;-71
2022/03/20 11:13:58;;;;;;;;;17.25;15.50;;;;;25.09;21.95;102379.72;5048053;28;45947;-70
2022/03/20 11:16:25;;;;;;;;;20.50;20.50;;;;;24.70;22.06;102380.97;5049027;28;47025;-71
2022/03/20 11:18:56;;;;;;;;;30.00;25.50;;;;;24.24;22.39;102364.75;5042164;28;46500;-74
2022/03/20 11:21:27;;;;;;;;;23.75;21.50;;;;;23.91;22.19;102375.19;5048220;28;45829;-73
2022/03/20 11:23:54;;;;;;;;;22.75;20.25;;;;;23.80;22.82;102368.88;5053879;28;45489;-70
2022/03/20 11:26:21;;;;;;;;;19.50;16.50;;;;;23.75;22.27;102379.94;5056193;28;45436;-72
2022/03/20 11:28:55;;;;;;;;;13.75;13.50;;;;;23.56;22.40;102380.41;5054140;28;46209;-72
2022/03/20 11:31:21;;;;;;;;;18.75;14.75;;;;;23.24;22.44;102384.53;5054175;28;45414;-74
2022/03/20 11:33:47;;;;;;;;;16.50;14.25;;;;;22.92;22.62;102377.75;5053890;28;46137;-74
2022/03/20 11:36:13;;;;;;;;;17.75;13.25;;;;;22.59;22.08;102380.88;5044261;28;45590;-72
2022/03/20 11:38:40;;;;;;;;;16.00;15.00;;;;;22.29;22.22;102380.25;5048199;28;46298;-72
2022/03/20 11:41:14;;;;;;;;;14.50;11.50;;;;;22.29;23.54;102366.84;5051275;28;45459;-71
2022/03/20 11:43:44;;;;;;;;;16.25;14.75;;;;;22.47;22.88;102373.69;5049416;28;45506;-73
2022/03/20 11:46:28;;;;;;;;;20.25;16.00;;;;;22.40;22.44;102367.03;5049639;28;45562;-73
2022/03/20 11:49:18;;;;;;;;;16.25;13.50;;;;;22.36;23.40;102368.19;5050948;28;48550;-74
2022/03/20 11:52:15;;;;;;;;;16.50;13.00;;;;;22.00;22.88;102369.63;5052883;28;45792;-69